Time;durP1;ratioP1;P1;durP2;ratioP2;P2;SDS_P1;SDS_P2;PMS_P1;PMS_P2;Temp;Humidity;BMP_temperature;BMP_pressure;BME280_temperature;BME280_humidity;BME280_pressure;Samples;Min_cycle;Max_cycle;Signal;HPM_P1;HPM_P2
2022/01/11 00:01:26;;;;;;;34.72;14.80;;;;;;;0.59;95.64;102976.44;5097238;28;20035;-65
2022/01/11 00:03:52;;;;;;;41.03;15.05;;;;;;;0.82;94.94;102983.06;5096435;28;20589;-66
2022/01/11 00:09:50;;;;;;;32.70;14.35;;;;;;;0.82;94.13;102986.41;5062289;28;20051;-66
2022/01/11 00:12:08;;;;;;;52.65;14.57;;;;;;;0.60;94.88;102993.34;5093293;28;20085;-67
2022/01/11 00:14:35;;;;;;;45.30;14.50;;;;;;;0.61;95.45;102990.75;5096392;28;20020;-67
2022/01/11 00:17:01;;;;;;;50.25;13.45;;;;;;;0.53;94.96;102990.28;5096298;28;20455;-66
2022/01/11 00:19:28;;;;;;;38.92;13.70;;;;;;;0.59;96.30;102994.25;5095981;28;20031;-66
2022/01/11 00:21:54;;;;;;;33.58;13.75;;;;;;;0.67;95.72;102995.56;5077906;28;20016;-66
2022/01/11 00:24:29;;;;;;;49.45;15.10;;;;;;;0.57;95.51;102999.41;5096280;28;20080;-66
2022/01/11 00:27:05;;;;;;;34.80;13.85;;;;;;;0.87;95.27;102994.69;5096246;28;20058;-67
2022/01/11 00:29:32;;;;;;;37.22;14.80;;;;;;;0.58;94.33;102960.38;5077869;28;20024;-67
2022/01/11 00:32:03;;;;;;;39.42;15.02;;;;;;;0.76;94.62;102986.69;5077581;28;20392;-67
2022/01/11 00:34:38;;;;;;;60.30;14.23;;;;;;;0.55;95.23;102995.31;5096177;28;20081;-66
2022/01/11 00:37:04;;;;;;;42.95;14.63;;;;;;;0.51;96.63;102996.31;5077917;28;20459;-66
2022/01/11 00:39:29;;;;;;;39.55;14.82;;;;;;;0.50;96.44;102987.84;5077790;28;20035;-66
2022/01/11 00:41:55;;;;;;;37.65;15.10;;;;;;;0.66;95.79;102995.63;5077783;28;20434;-66
2022/01/11 00:44:21;;;;;;;39.95;15.18;;;;;;;0.80;95.15;102995.03;5077667;28;20134;-66
2022/01/11 00:46:46;;;;;;;42.67;14.93;;;;;;;0.82;95.47;102996.59;5077742;28;20055;-67
2022/01/11 00:49:11;;;;;;;45.67;15.23;;;;;;;0.60;95.75;102991.63;5095766;28;20386;-66
2022/01/11 00:51:37;;;;;;;43.90;15.48;;;;;;;0.55;96.08;102993.56;5095758;28;20466;-66
2022/01/11 00:54:03;;;;;;;42.65;14.25;;;;;;;0.65;95.71;102987.16;5095668;28;20028;-66
2022/01/11 00:56:29;;;;;;;56.47;15.93;;;;;;;0.74;95.04;102987.66;5095355;28;20052;-67
2022/01/11 00:58:54;;;;;;;55.38;16.25;;;;;;;0.61;95.64;102988.22;5095443;28;20023;-67
2022/01/11 01:01:19;;;;;;;53.92;17.08;;;;;;;0.54;96.04;102979.19;5077427;28;20035;-67
2022/01/11 01:03:45;;;;;;;48.15;16.13;;;;;;;0.61;96.77;102977.22;5095498;28;20067;-67
2022/01/11 01:06:10;;;;;;;40.15;16.30;;;;;;;0.70;96.03;102974.25;5095429;28;20374;-67
2022/01/11 01:08:35;;;;;;;42.25;15.93;;;;;;;0.79;95.49;102976.38;5077230;28;20024;-67
2022/01/11 01:11:00;;;;;;;37.05;14.82;;;;;;;0.95;95.17;102980.75;5077172;28;20119;-67
2022/01/11 01:13:28;;;;;;;44.20;16.42;;;;;;;0.83;94.45;102980.44;5095278;28;20016;-66
2022/01/11 01:15:55;;;;;;;54.83;15.70;;;;;;;0.57;96.11;102983.31;5095237;28;20024;-67
2022/01/11 01:18:24;;;;;;;43.25;15.73;;;;;;;0.89;95.93;102987.81;5095316;28;20463;-67
2022/01/11 01:20:51;;;;;;;38.00;15.95;;;;;;;0.86;94.77;102992.19;5095074;28;20101;-67
2022/01/11 01:23:17;;;;;;;36.45;16.38;;;;;;;0.86;96.13;102997.28;5095629;28;20028;-67
2022/01/11 01:25:44;;;;;;;43.97;16.35;;;;;;;0.90;95.11;102992.00;5094979;28;20103;-67
2022/01/11 01:28:10;;;;;;;40.80;16.58;;;;;;;0.71;95.50;102993.72;5095843;28;20020;-68
2022/01/11 01:30:36;;;;;;;47.10;16.13;;;;;;;0.72;95.37;102997.94;5095440;28;20040;-67
2022/01/11 01:33:03;;;;;;;44.50;16.52;;;;;;;0.70;95.31;102981.88;5094844;28;20455;-66
2022/01/11 01:35:34;;;;;;;45.65;15.63;;;;;;;0.65;95.12;102986.34;5094777;28;20031;-66
2022/01/11 01:38:00;;;;;;;44.53;15.95;;;;;;;0.79;95.87;102986.56;5094809;28;20494;-67
2022/01/11 01:40:26;;;;;;;44.15;16.08;;;;;;;0.76;95.72;102989.25;5094621;28;20024;-67
2022/01/11 01:42:52;;;;;;;39.92;15.95;;;;;;;0.80;95.75;102995.03;5093975;28;20039;-67
2022/01/11 01:45:19;;;;;;;37.35;16.05;;;;;;;0.86;95.27;102999.84;5094701;28;20382;-66
2022/01/11 01:47:44;;;;;;;41.45;16.58;;;;;;;1.02;94.39;103005.88;5094686;28;20493;-66
2022/01/11 01:50:11;;;;;;;41.00;15.65;;;;;;;1.16;93.86;103000.16;5076416;28;20016;-66
2022/01/11 01:52:37;;;;;;;37.15;15.25;;;;;;;0.73;94.02;102970.75;5094447;28;20088;-66
2022/01/11 01:55:05;;;;;;;37.60;16.33;;;;;;;0.78;95.02;102996.84;5094340;28;20470;-68
2022/01/11 01:57:31;;;;;;;40.58;15.90;;;;;;;0.86;95.06;102999.84;5094395;28;20135;-67
2022/01/11 01:59:56;;;;;;;39.78;15.90;;;;;;;0.95;94.18;103008.78;5094247;28;20470;-66
2022/01/11 02:02:22;;;;;;;40.97;16.05;;;;;;;0.68;95.10;102988.75;5094364;28;20036;-66
2022/01/11 02:04:49;;;;;;;40.47;16.13;;;;;;;0.84;94.30;103007.56;5076057;28;20054;-66
2022/01/11 02:07:14;;;;;;;38.05;16.20;;;;;;;0.78;94.68;103012.09;5094302;28;20457;-66
2022/01/11 02:09:40;;;;;;;36.88;15.65;;;;;;;0.79;94.69;103014.56;5094098;28;20012;-66
2022/01/11 02:12:06;;;;;;;37.38;15.88;;;;;;;0.89;95.01;103017.50;5094151;28;20078;-67
2022/01/11 02:14:31;;;;;;;38.67;15.60;;;;;;;0.84;94.53;103022.81;5094133;28;20082;-65
2022/01/11 02:16:59;;;;;;;43.97;16.63;;;;;;;0.75;95.02;103012.22;5094574;28;20024;-67
2022/01/11 02:19:25;;;;;;;42.55;16.90;;;;;;;0.83;94.71;103035.59;5094330;28;20457;-66
2022/01/11 02:21:50;;;;;;;41.30;15.48;;;;;;;0.53;94.93;103014.88;5094007;28;20103;-66
2022/01/11 02:24:15;;;;;;;42.90;16.33;;;;;;;0.89;94.86;103045.50;5093958;28;20097;-66
2022/01/11 02:26:41;;;;;;;38.90;15.80;;;;;;;1.03;94.23;103048.28;5094275;28;20115;-66
2022/01/11 02:29:06;;;;;;;37.58;15.52;;;;;;;1.04;93.96;103041.47;5093962;28;20020;-67
2022/01/11 02:31:36;;;;;;;41.85;16.33;;;;;;;0.99;94.48;103053.59;5075646;28;20024;-67
2022/01/11 02:34:01;;;;;;;42.00;17.00;;;;;;;1.01;93.66;103055.19;5075698;28;20389;-67
2022/01/11 02:36:37;;;;;;;38.67;15.43;;;;;;;0.99;93.49;103045.94;5075589;28;20024;-65
2022/01/11 02:39:03;;;;;;;40.78;15.85;;;;;;;0.66;94.73;103057.56;5075640;28;20024;-66
2022/01/11 02:41:30;;;;;;;44.58;16.75;;;;;;;0.68;94.49;103057.47;5093647;28;20024;-66
2022/01/11 02:43:57;;;;;;;44.53;16.58;;;;;;;0.70;94.53;103057.41;5075621;28;20359;-66
2022/01/11 02:46:23;;;;;;;43.40;16.67;;;;;;;0.59;94.77;103050.25;5093704;28;20020;-66
2022/01/11 02:48:50;;;;;;;44.45;16.75;;;;;;;0.64;94.32;103050.88;5093615;28;20044;-66
2022/01/11 02:51:17;;;;;;;41.17;16.23;;;;;;;0.76;93.72;103047.78;5075479;28;20020;-67
2022/01/11 02:53:45;;;;;;;41.85;15.75;;;;;;;0.52;94.82;103051.38;5093483;28;20518;-66
2022/01/11 02:56:12;;;;;;;40.15;16.42;;;;;;;0.40;95.72;103040.88;5075218;28;20394;-67
2022/01/11 02:58:38;;;;;;;46.13;16.05;;;;;;;0.58;95.39;103034.16;5075400;28;20532;-68
2022/01/11 03:01:04;;;;;;;41.13;15.95;;;;;;;0.55;95.03;103036.00;5094026;28;20024;-67
2022/01/11 03:03:29;;;;;;;43.25;14.93;;;;;;;0.61;95.20;103026.38;5093429;28;20050;-67
2022/01/11 03:05:57;;;;;;;42.95;15.35;;;;;;;0.57;94.37;103031.66;5093415;28;20024;-66
2022/01/11 03:08:26;;;;;;;45.63;16.55;;;;;;;0.58;95.08;103026.53;5093355;28;20020;-66
2022/01/11 03:10:52;;;;;;;40.83;15.38;;;;;;;0.54;94.78;103031.78;5075352;28;20028;-65
2022/01/11 03:13:19;;;;;;;38.78;15.55;;;;;;;0.51;94.80;103042.09;5093333;28;20396;-67
2022/01/11 03:15:47;;;;;;;39.25;15.63;;;;;;;0.35;94.70;103036.88;5093312;28;20036;-67
2022/01/11 03:18:13;;;;;;;41.88;16.10;;;;;;;0.45;95.04;103038.09;5094006;28;20081;-67
2022/01/11 03:20:39;;;;;;;42.60;15.70;;;;;;;0.56;94.61;103035.94;5093155;28;20077;-67
2022/01/11 03:23:05;;;;;;;36.78;13.32;;;;;;;0.37;94.18;103040.97;5075203;28;20020;-67
2022/01/11 03:25:31;;;;;;;42.95;15.82;;;;;;;0.37;94.49;103040.16;5093213;28;20035;-66
2022/01/11 03:27:57;;;;;;;38.90;14.90;;;;;;;0.53;94.56;103035.25;5075120;28;20062;-65
2022/01/11 03:30:23;;;;;;;39.53;15.65;;;;;;;0.34;94.35;103040.28;5075061;28;20106;-66
2022/01/11 03:32:48;;;;;;;41.35;15.52;;;;;;;0.42;94.15;103040.78;5093190;28;20024;-65
2022/01/11 03:35:14;;;;;;;35.92;14.65;;;;;;;0.43;94.02;103048.38;5093134;28;20039;-66
2022/01/11 03:37:41;;;;;;;39.80;15.55;;;;;;;0.52;94.04;103059.00;5093099;28;20020;-66
2022/01/11 03:40:10;;;;;;;34.42;15.15;;;;;;;0.54;93.86;103055.50;5092935;28;20047;-67
2022/01/11 03:42:36;;;;;;;39.63;14.18;;;;;;;0.46;93.77;103057.56;5074956;28;20024;-66
2022/01/11 03:45:03;;;;;;;38.78;15.25;;;;;;;0.70;93.00;103065.88;5093053;28;20024;-66
2022/01/11 03:47:29;;;;;;;42.38;15.38;;;;;;;0.72;92.98;103056.47;5074931;28;20046;-67
2022/01/11 03:49:54;;;;;;;37.58;15.57;;;;;;;0.48;93.58;103062.59;5093214;28;20518;-66
2022/01/11 03:52:20;;;;;;;38.70;15.48;;;;;;;0.70;93.59;103058.25;5074831;28;20032;-66
2022/01/11 03:57:20;;;;;;;40.92;15.98;;;;;;;0.41;94.83;103056.94;5092824;28;20058;-66
2022/01/11 03:59:45;;;;;;;38.63;15.05;;;;;;;0.37;94.12;103052.88;5092903;28;20383;-66
2022/01/11 04:02:11;;;;;;;38.95;15.20;;;;;;;0.40;94.92;103050.19;5092944;28;20027;-66
2022/01/11 04:04:36;;;;;;;39.00;14.95;;;;;;;0.30;95.08;103059.13;5074768;28;20016;-65
2022/01/11 04:07:02;;;;;;;43.72;15.75;;;;;;;0.33;94.75;103047.09;5096207;28;20016;-66
2022/01/11 04:09:27;;;;;;;41.72;15.75;;;;;;;0.26;94.74;103053.34;5096685;28;20016;-66
2022/01/11 04:11:53;;;;;;;48.58;16.95;;;;;;;0.35;94.68;103045.31;5096496;28;20100;-66
2022/01/11 04:14:18;;;;;;;42.63;16.77;;;;;;;0.51;94.49;103037.84;5096496;28;20081;-66
2022/01/11 04:16:43;;;;;;;43.55;16.17;;;;;;;0.24;94.73;103050.03;5096481;28;20512;-67
2022/01/11 04:19:09;;;;;;;46.42;15.57;;;;;;;0.16;95.18;103047.78;5096257;28;20465;-67
2022/01/11 04:21:34;;;;;;;47.53;16.55;;;;;;;0.22;95.21;103051.78;5078190;28;20134;-66
2022/01/11 04:24:00;;;;;;;49.55;17.23;;;;;;;0.10;95.44;103044.69;5096324;28;20047;-66
2022/01/11 04:26:25;;;;;;;47.78;17.08;;;;;;;0.15;96.21;103042.78;5096266;28;20095;-65
2022/01/11 04:28:50;;;;;;;51.55;17.00;;;;;;;0.24;95.60;103047.47;5078061;28;20020;-66
2022/01/11 04:31:16;;;;;;;38.60;14.80;;;;;;;0.35;94.88;103050.41;5077992;28;20103;-67
2022/01/11 04:33:43;;;;;;;44.65;16.77;;;;;;;0.47;94.87;103068.59;5096174;28;20136;-66
2022/01/11 04:36:09;;;;;;;48.05;17.30;;;;;;;0.64;93.54;103066.16;5077830;28;20027;-65
2022/01/11 04:38:34;;;;;;;46.72;16.50;;;;;;;0.63;93.45;103065.31;5095940;28;20512;-67
2022/01/11 04:41:00;;;;;;;49.03;16.77;;;;;;;0.58;94.55;103068.97;5077814;28;20024;-67
2022/01/11 04:43:25;;;;;;;47.97;17.30;;;;;;;0.52;93.92;103066.66;5095818;28;20107;-66
2022/01/11 04:45:50;;;;;;;45.15;16.88;;;;;;;0.55;93.98;103074.19;5077740;28;20028;-66
2022/01/11 04:48:18;;;;;;;42.95;16.15;;;;;;;0.69;93.98;103071.84;5096055;28;20028;-66
2022/01/11 04:50:45;;;;;;;43.95;16.08;;;;;;;0.60;93.82;103072.25;5077672;28;20020;-65
2022/01/11 04:53:10;;;;;;;50.03;17.45;;;;;;;0.46;94.64;103072.81;5095693;28;20031;-66
2022/01/11 04:55:35;;;;;;;48.05;17.70;;;;;;;0.50;94.13;103076.09;5095552;28;20486;-66
2022/01/11 04:58:01;;;;;;;43.47;16.17;;;;;;;0.70;94.43;103081.16;5095697;28;20028;-67
2022/01/11 05:00:27;;;;;;;51.50;17.55;;;;;;;0.52;94.80;103080.22;5095768;28;20020;-65
2022/01/11 05:02:56;;;;;;;53.25;16.85;;;;;;;0.36;94.54;103069.03;5095361;28;20382;-66
2022/01/11 05:05:22;;;;;;;49.97;17.02;;;;;;;0.52;94.80;103067.50;5077313;28;20120;-66
2022/01/11 05:07:47;;;;;;;54.67;17.98;;;;;;;0.52;94.77;103064.94;5077343;28;20059;-66
2022/01/11 05:10:13;;;;;;;58.13;17.63;;;;;;;0.40;94.67;103079.03;5095384;28;20347;-66
2022/01/11 05:12:39;;;;;;;45.58;17.35;;;;;;;0.51;94.98;103067.56;5077295;28;20020;-66
2022/01/11 05:15:09;;;;;;;47.83;16.90;;;;;;;0.52;94.97;103067.50;5095293;28;20074;-66
2022/01/11 05:17:35;;;;;;;52.50;17.50;;;;;;;0.43;95.39;103070.41;5094757;28;20036;-66
2022/01/11 05:20:01;;;;;;;52.97;17.45;;;;;;;0.48;94.75;103065.97;5095144;28;20024;-65
2022/01/11 05:22:26;;;;;;;53.13;18.13;;;;;;;0.55;94.33;103084.34;5095299;28;20115;-64
2022/01/11 05:24:51;;;;;;;55.05;19.25;;;;;;;0.44;94.86;103085.63;5095582;28;20024;-65
2022/01/11 05:27:17;;;;;;;48.50;17.25;;;;;;;0.25;95.60;103084.72;5076906;28;20078;-66
2022/01/11 05:29:42;;;;;;;60.30;18.33;;;;;;;0.36;95.67;103097.00;5076928;28;20012;-67
2022/01/11 05:32:08;;;;;;;62.78;18.90;;;;;;;0.42;95.37;103089.13;5095801;28;20319;-66
2022/01/11 05:34:33;;;;;;;60.95;19.83;;;;;;;0.40;95.42;103093.44;5094864;28;20039;-67
2022/01/11 05:36:58;;;;;;;64.40;19.13;;;;;;;0.49;95.48;103093.06;5094937;28;20023;-66
2022/01/11 05:39:24;;;;;;;60.10;19.83;;;;;;;0.50;95.63;103091.34;5076574;28;20077;-66
2022/01/11 05:41:49;;;;;;;59.47;19.40;;;;;;;0.51;94.77;103093.81;5094831;28;20024;-68
2022/01/11 05:44:15;;;;;;;57.28;19.23;;;;;;;0.50;94.60;103106.63;5094776;28;20027;-66
2022/01/11 05:46:40;;;;;;;61.85;20.58;;;;;;;0.48;94.76;103091.41;5076470;28;20027;-66
2022/01/11 05:49:05;;;;;;;61.50;20.00;;;;;;;0.68;95.26;103099.00;5094875;28;20345;-66
2022/01/11 05:51:31;;;;;;;64.22;21.85;;;;;;;0.62;95.10;103095.91;5094631;28;20038;-65
2022/01/11 05:53:56;;;;;;;56.33;19.45;;;;;;;0.42;95.09;103106.94;5076238;28;20142;-67
2022/01/11 05:56:22;;;;;;;69.28;20.85;;;;;;;0.64;94.83;103106.88;5094394;28;20062;-66
2022/01/11 05:58:47;;;;;;;56.67;19.30;;;;;;;0.65;93.76;103099.16;5094277;28;20407;-66
2022/01/11 06:01:14;;;;;;;50.40;17.80;;;;;;;0.54;94.29;103103.88;5094843;28;20030;-66
2022/01/11 06:03:39;;;;;;;54.13;18.75;;;;;;;0.73;94.11;103092.91;5094895;28;20032;-66
2022/01/11 06:06:05;;;;;;;57.10;18.98;;;;;;;0.77;93.71;103092.69;5076861;28;20026;-66
2022/01/11 06:08:31;;;;;;;57.35;19.25;;;;;;;0.59;93.64;103094.31;5094329;28;20028;-66
2022/01/11 06:10:57;;;;;;;53.80;18.88;;;;;;;0.48;94.12;103105.84;5076021;28;20475;-67
2022/01/11 06:13:23;;;;;;;56.17;18.60;;;;;;;0.52;94.51;103098.03;5094232;28;20063;-66
2022/01/11 06:15:48;;;;;;;61.45;20.55;;;;;;;0.40;95.35;103109.56;5076001;28;20448;-66
2022/01/11 06:18:13;;;;;;;61.50;19.33;;;;;;;0.50;94.48;103109.16;5076084;28;20381;-66
2022/01/11 06:20:39;;;;;;;58.80;21.05;;;;;;;0.50;94.68;103094.72;5094493;28;20028;-66
2022/01/11 06:23:04;;;;;;;54.85;18.83;;;;;;;0.55;94.50;103099.63;5094260;28;20156;-66
2022/01/11 06:25:29;;;;;;;58.92;19.73;;;;;;;0.57;93.71;103105.44;5093954;28;20462;-65
2022/01/11 06:27:55;;;;;;;55.90;20.15;;;;;;;0.57;93.69;103100.38;5094227;28;20024;-66
2022/01/11 06:30:20;;;;;;;53.80;19.58;;;;;;;0.47;94.52;103105.03;5094470;28;20016;-66
2022/01/11 06:32:46;;;;;;;59.92;19.75;;;;;;;0.52;94.20;103108.22;5075685;28;20046;-65
2022/01/11 06:35:16;;;;;;;57.38;19.63;;;;;;;0.51;94.08;103120.97;5093778;28;20386;-67
2022/01/11 06:37:41;;;;;;;52.33;18.77;;;;;;;0.51;94.43;103106.53;5094358;28;20035;-65
2022/01/11 06:40:08;;;;;;;57.13;19.75;;;;;;;0.54;94.23;103108.13;5094178;28;20028;-65
2022/01/11 06:42:34;;;;;;;59.67;20.70;;;;;;;0.60;93.32;103111.22;5093121;28;20074;-67
2022/01/11 06:44:59;;;;;;;53.70;19.02;;;;;;;0.45;93.61;103110.16;5074801;28;20032;-67
2022/01/11 06:47:24;;;;;;;55.60;19.63;;;;;;;0.55;93.67;103109.81;5092454;28;20030;-67
2022/01/11 06:49:50;;;;;;;55.88;19.45;;;;;;;0.50;93.89;103124.44;5093662;28;20446;-66
2022/01/11 06:52:15;;;;;;;60.83;19.23;;;;;;;0.52;94.28;103123.47;5093297;28;20024;-66
2022/01/11 06:54:41;;;;;;;57.55;18.55;;;;;;;0.42;93.67;103124.72;5093857;28;20410;-66
2022/01/11 06:57:09;;;;;;;58.13;18.73;;;;;;;0.58;94.33;103123.22;5093494;28;20098;-66
2022/01/11 06:59:36;;;;;;;56.20;18.67;;;;;;;0.54;93.36;103129.31;5093205;28;20024;-66
2022/01/11 07:02:04;;;;;;;51.45;18.98;;;;;;;0.61;93.83;103132.44;5093220;28;20031;-66
2022/01/11 07:04:29;;;;;;;48.35;18.38;;;;;;;0.62;92.55;103140.00;5093144;28;20304;-65
2022/01/11 07:06:55;;;;;;;58.60;19.92;;;;;;;0.50;93.63;103137.97;5093162;28;20027;-66
2022/01/11 07:09:20;;;;;;;57.70;18.15;;;;;;;0.61;93.08;103137.53;5092973;28;20458;-67
2022/01/11 07:11:45;;;;;;;52.80;18.55;;;;;;;0.63;92.30;103143.38;5075378;28;20027;-66
2022/01/11 07:14:11;;;;;;;54.13;18.90;;;;;;;0.68;92.60;103149.91;5093158;28;20386;-66
2022/01/11 07:16:37;;;;;;;45.40;18.60;;;;;;;0.55;93.58;103143.69;5093282;28;20020;-66
2022/01/11 07:19:02;;;;;;;55.13;19.25;;;;;;;0.53;92.94;103137.03;5093407;28;20028;-66
2022/01/11 07:21:27;;;;;;;52.05;18.38;;;;;;;0.47;93.66;103143.19;5093193;28;20031;-66
2022/01/11 07:23:53;;;;;;;54.95;18.67;;;;;;;0.54;92.75;103153.94;5093284;28;20378;-67
2022/01/11 07:26:18;;;;;;;46.85;18.30;;;;;;;0.64;92.56;103153.50;5093303;28;20103;-66
2022/01/11 07:28:43;;;;;;;46.13;17.48;;;;;;;0.63;92.65;103162.03;5073498;28;20066;-66
2022/01/11 07:31:09;;;;;;;49.00;17.63;;;;;;;0.65;92.52;103162.78;5091192;28;20028;-67
2022/01/11 07:33:34;;;;;;;47.35;17.05;;;;;;;0.59;92.56;103164.75;5091028;28;20024;-66
2022/01/11 07:36:00;;;;;;;44.35;17.20;;;;;;;0.65;92.17;103169.59;5091130;28;20356;-65
2022/01/11 07:38:25;;;;;;;49.50;17.23;;;;;;;0.83;92.05;103178.16;5090560;28;20048;-66
2022/01/11 07:40:50;;;;;;;43.92;17.42;;;;;;;0.73;91.42;103174.38;5092754;28;20478;-66
2022/01/11 07:43:16;;;;;;;48.28;17.75;;;;;;;0.37;91.69;103136.81;5096391;28;20028;-70
2022/01/11 07:45:41;;;;;;;42.60;17.98;;;;;;;0.66;91.89;103178.84;5079140;28;20028;-67
2022/01/11 07:48:06;;;;;;;48.05;17.42;;;;;;;0.84;91.28;103178.13;5096868;28;20486;-67
2022/01/11 07:50:32;;;;;;;44.08;17.48;;;;;;;0.73;91.00;103167.56;5097116;28;20024;-66
2022/01/11 07:52:59;;;;;;;43.70;17.65;;;;;;;0.80;91.31;103176.56;5096738;28;20119;-68
2022/01/11 07:55:24;;;;;;;40.17;17.95;;;;;;;0.92;90.94;103170.13;5078345;28;20043;-67
2022/01/11 07:57:50;;;;;;;41.30;17.02;;;;;;;0.80;90.72;103186.75;5095330;28;20027;-67
2022/01/11 08:00:15;;;;;;;43.35;17.35;;;;;;;0.81;91.08;103187.59;5094409;28;20481;-66
2022/01/11 08:02:41;;;;;;;45.67;18.23;;;;;;;0.68;91.31;103177.09;5096930;28;20024;-67
2022/01/11 08:05:07;;;;;;;43.13;16.70;;;;;;;0.78;91.05;103180.09;5095633;28;20048;-67
2022/01/11 08:07:32;;;;;;;43.95;18.10;;;;;;;0.78;90.62;103182.66;5078373;28;20032;-67
2022/01/11 08:09:58;;;;;;;48.15;17.02;;;;;;;0.67;91.35;103183.91;5077753;28;20047;-66
2022/01/11 08:12:23;;;;;;;40.85;17.30;;;;;;;0.75;90.92;103193.78;5075979;28;20020;-67
2022/01/11 08:14:48;;;;;;;40.13;15.45;;;;;;;0.63;90.75;103190.03;5076152;28;20020;-66
2022/01/11 08:17:15;;;;;;;41.53;17.35;;;;;;;0.99;89.98;103186.00;5094281;28;20332;-66
2022/01/11 08:19:40;;;;;;;39.70;16.40;;;;;;;0.97;89.42;103195.41;5093957;28;20063;-66
2022/01/11 08:22:06;;;;;;;36.75;16.08;;;;;;;1.03;89.28;103201.06;5094432;28;20052;-67
2022/01/11 08:24:32;;;;;;;37.88;15.27;;;;;;;0.84;89.79;103193.38;5094971;28;20056;-66
2022/01/11 08:26:58;;;;;;;39.80;16.50;;;;;;;0.74;90.88;103193.81;5096669;28;20064;-68
2022/01/11 08:29:24;;;;;;;39.92;16.60;;;;;;;0.76;90.03;103192.88;5077944;28;20486;-68
2022/01/11 08:31:49;;;;;;;39.95;15.45;;;;;;;1.04;89.33;103205.28;5096673;28;20020;-66
2022/01/11 08:34:16;;;;;;;37.03;14.82;;;;;;;1.09;88.88;103200.81;5096313;28;20031;-66
2022/01/11 08:36:43;;;;;;;37.65;15.35;;;;;;;0.98;89.21;103204.69;5095846;28;20147;-66
2022/01/11 08:39:10;;;;;;;35.53;14.90;;;;;;;0.87;89.09;103208.53;5095880;28;20107;-65
2022/01/11 08:41:36;;;;;;;37.00;15.80;;;;;;;0.76;89.02;103179.31;5077192;28;20035;-65
2022/01/11 08:44:02;;;;;;;36.90;15.50;;;;;;;1.01;88.98;103213.06;5095838;28;20032;-66
2022/01/11 08:46:27;;;;;;;33.72;14.55;;;;;;;0.93;88.82;103217.63;5096274;28;20024;-66
2022/01/11 08:48:53;;;;;;;35.45;14.57;;;;;;;1.00;88.79;103219.00;5094978;28;20065;-65
2022/01/11 08:51:18;;;;;;;33.55;15.20;;;;;;;1.06;88.48;103207.75;5094240;28;20024;-67
2022/01/11 08:53:44;;;;;;;34.88;15.20;;;;;;;1.07;87.95;103219.59;5094519;28;20454;-66
2022/01/11 08:56:11;;;;;;;35.50;14.38;;;;;;;0.96;88.43;103212.41;5094390;28;20052;-67
2022/01/11 08:58:36;;;;;;;32.80;13.82;;;;;;;1.14;88.00;103228.63;5094612;28;20028;-66
2022/01/11 09:01:02;;;;;;;34.53;14.05;;;;;;;1.34;87.48;103220.94;5076378;28;20035;-66
2022/01/11 09:03:27;;;;;;;31.35;13.98;;;;;;;1.33;87.34;103224.41;5076648;28;20024;-66
2022/01/11 09:05:53;;;;;;;30.50;13.90;;;;;;;1.09;87.75;103226.28;5096068;28;20157;-66
2022/01/11 09:08:19;;;;;;;28.70;13.45;;;;;;;1.05;87.55;103227.28;5077189;28;20026;-66
2022/01/11 09:10:45;;;;;;;30.83;13.65;;;;;;;1.02;88.11;103218.97;5094450;28;20028;-65
2022/01/11 09:13:11;;;;;;;32.97;13.82;;;;;;;1.02;87.57;103224.88;5076948;28;20016;-65
2022/01/11 09:15:36;;;;;;;33.65;14.93;;;;;;;1.22;87.78;103225.75;5095124;28;20019;-67
2022/01/11 09:18:03;;;;;;;31.42;13.77;;;;;;;1.36;86.80;103236.19;5094439;28;20031;-67
2022/01/11 09:20:28;;;;;;;31.42;13.75;;;;;;;1.21;86.46;103245.31;5093857;28;20030;-67
2022/01/11 09:22:54;;;;;;;34.90;13.88;;;;;;;1.30;86.72;103234.72;5075882;28;20032;-67
2022/01/11 09:25:20;;;;;;;28.95;13.52;;;;;;;1.30;86.97;103224.53;5094140;28;20432;-66
2022/01/11 09:27:45;;;;;;;31.00;13.25;;;;;;;1.41;86.67;103228.31;5075492;28;20078;-67
2022/01/11 09:30:13;;;;;;;26.73;13.23;;;;;;;1.45;86.03;103228.13;5094606;28;20051;-67
2022/01/11 09:32:41;;;;;;;28.83;12.95;;;;;;;1.41;86.04;103234.28;5093740;28;20027;-67
2022/01/11 09:35:08;;;;;;;33.42;14.38;;;;;;;1.41;86.31;103228.31;5075696;28;20024;-67
2022/01/11 09:37:33;;;;;;;30.30;14.55;;;;;;;1.11;86.30;103208.38;5093756;28;20036;-67
2022/01/11 09:39:58;;;;;;;40.00;14.85;;;;;;;1.38;86.62;103225.91;5076199;28;20069;-66
2022/01/11 09:42:26;;;;;;;36.05;15.25;;;;;;;1.40;86.63;103227.50;5094600;28;20052;-67
2022/01/11 09:44:52;;;;;;;31.80;13.93;;;;;;;1.44;85.51;103226.50;5094636;28;20066;-67
2022/01/11 09:47:18;;;;;;;33.88;13.82;;;;;;;1.33;86.29;103221.84;5094367;28;20076;-67
2022/01/11 09:49:44;;;;;;;33.88;14.43;;;;;;;1.44;85.80;103212.91;5092975;28;20409;-67
2022/01/11 09:52:12;;;;;;;31.23;14.77;;;;;;;1.42;85.49;103215.53;5092796;28;20016;-68
2022/01/11 09:54:40;;;;;;;33.35;14.13;;;;;;;1.36;86.20;103223.44;5093657;28;20382;-67
2022/01/11 09:57:06;;;;;;;32.90;14.35;;;;;;;1.44;85.99;103223.94;5095234;28;20093;-67
2022/01/11 09:59:34;;;;;;;38.13;14.18;;;;;;;1.56;84.84;103225.94;5094090;28;20424;-67
2022/01/11 10:01:59;;;;;;;30.85;13.77;;;;;;;1.75;84.57;103230.22;5094505;28;20085;-67
2022/01/11 10:04:29;;;;;;;30.70;14.02;;;;;;;1.94;83.28;103220.84;5092706;28;20490;-67
2022/01/11 10:06:59;;;;;;;29.20;13.60;;;;;;;2.12;82.94;103220.88;5093573;28;20119;-67
2022/01/11 10:09:25;;;;;;;30.15;14.05;;;;;;;2.09;82.71;103223.56;5074029;28;20023;-66
2022/01/11 10:11:53;;;;;;;32.15;13.80;;;;;;;2.24;82.08;103220.28;5092443;28;20043;-67
2022/01/11 10:14:33;;;;;;;31.27;13.90;;;;;;;2.09;82.14;103226.94;5091426;28;20536;-67
2022/01/11 10:17:06;;;;;;;30.90;13.90;;;;;;;2.06;82.61;103229.63;5092198;28;20032;-66
2022/01/11 10:19:33;;;;;;;27.92;12.77;;;;;;;1.73;83.76;103232.84;5075029;28;20036;-67
2022/01/11 10:22:06;;;;;;;31.33;13.65;;;;;;;1.76;83.47;103226.78;5075480;28;20079;-67
2022/01/11 10:24:41;;;;;;;;;;;;;;;1.88;83.57;103225.41;5093540;28;20074;-67
2022/01/11 10:27:17;;;;;;;25.70;11.82;;;;;;;1.85;82.97;103228.91;5093794;28;20283;-67
2022/01/11 10:29:47;;;;;;;29.52;13.50;;;;;;;1.92;82.68;103224.34;5075212;28;20016;-69
2022/01/11 10:32:17;;;;;;;31.70;12.63;;;;;;;1.87;82.85;103228.81;5073478;28;20023;-67
2022/01/11 10:34:47;;;;;;;32.95;14.23;;;;;;;1.92;83.07;103232.81;5093645;28;20027;-67
2022/01/11 10:37:14;;;;;;;35.00;13.77;;;;;;;2.01;82.57;103234.13;5093800;28;20471;-69
2022/01/11 10:39:44;;;;;;;27.60;12.68;;;;;;;2.04;82.18;103231.41;5074870;28;20016;-67
2022/01/11 10:42:26;;;;;;;30.92;12.90;;;;;;;2.27;81.86;103227.78;5075039;28;20020;-66
2022/01/11 10:44:58;;;;;;;30.77;12.68;;;;;;;2.47;81.20;103240.47;5075301;28;20101;-67
2022/01/11 10:47:36;;;;;;;31.17;12.52;;;;;;;2.20;81.02;103242.56;5075083;28;20493;-67
2022/01/11 10:50:28;;;;;;;36.10;14.27;;;;;;;2.34;81.16;103233.47;5073805;28;20016;-67
2022/01/11 10:52:56;;;;;;;27.95;12.35;;;;;;;2.02;81.65;103233.25;5093005;28;20086;-67
2022/01/11 10:55:23;;;;;;;29.42;12.85;;;;;;;2.27;82.34;103227.78;5072102;28;20028;-66
2022/01/11 10:58:03;;;;;;;33.58;13.30;;;;;;;2.20;81.46;103231.56;5091535;28;20095;-66
2022/01/11 11:00:32;;;;;;;27.63;12.65;;;;;;;2.07;81.85;103231.28;5092813;28;20383;-68
2022/01/11 11:03:14;;;;;;;29.60;13.30;;;;;;;2.26;81.66;103221.06;5075533;28;20061;-67
2022/01/11 11:05:47;;;;;;;32.72;12.73;;;;;;;2.53;80.17;103211.22;5075179;28;20028;-67
2022/01/11 11:08:15;;;;;;;28.63;13.13;;;;;;;2.51;80.46;103225.81;5092785;28;20032;-67
2022/01/11 11:11:07;;;;;;;33.28;13.80;;;;;;;2.52;79.86;103237.66;5073746;28;20012;-66
2022/01/11 11:13:35;;;;;;;28.40;12.43;;;;;;;2.76;79.22;103225.41;5074305;28;20169;-67
2022/01/11 11:16:15;;;;;;;26.83;12.43;;;;;;;2.51;79.93;103218.16;5093601;28;20020;-66
2022/01/11 11:18:53;;;;;;;25.83;12.20;;;;;;;2.62;79.50;103220.19;5077102;28;20520;-66
2022/01/11 11:21:35;;;;;;;27.13;11.77;;;;;;;2.79;78.94;103221.91;5095166;28;20027;-66